sensor_id;sensor_type;location;lat;lon;timestamp;temperature;humidity
48604;DHT22;32708;51.212;6.788;2022-09-03T00:01:00;19.90;1.00
48604;DHT22;32708;51.212;6.788;2022-09-03T00:03:41;19.80;1.00
48604;DHT22;32708;51.212;6.788;2022-09-03T00:06:35;19.80;1.00
48604;DHT22;32708;51.212;6.788;2022-09-03T00:09:40;19.70;1.00
48604;DHT22;32708;51.212;6.788;2022-09-03T00:12:39;19.70;1.00
48604;DHT22;32708;51.212;6.788;2022-09-03T00:15:17;19.70;1.00
48604;DHT22;32708;51.212;6.788;2022-09-03T00:18:06;19.60;1.00
48604;DHT22;32708;51.212;6.788;2022-09-03T00:20:45;19.60;1.00
48604;DHT22;32708;51.212;6.788;2022-09-03T00:23:25;19.60;1.00
48604;DHT22;32708;51.212;6.788;2022-09-03T00:28:44;19.60;1.00
48604;DHT22;32708;51.212;6.788;2022-09-03T00:31:33;19.50;1.00
48604;DHT22;32708;51.212;6.788;2022-09-03T00:34:33;19.50;1.00
48604;DHT22;32708;51.212;6.788;2022-09-03T00:37:00;19.50;1.00
48604;DHT22;32708;51.212;6.788;2022-09-03T00:39:28;19.50;1.00
48604;DHT22;32708;51.212;6.788;2022-09-03T01:04:34;19.40;1.00
48604;DHT22;32708;51.212;6.788;2022-09-03T01:13:40;19.40;1.00
48604;DHT22;32708;51.212;6.788;2022-09-03T01:16:11;19.30;1.00
48604;DHT22;32708;51.212;6.788;2022-09-03T01:34:45;19.30;1.00
48604;DHT22;32708;51.212;6.788;2022-09-03T01:37:43;19.20;1.00
48604;DHT22;32708;51.212;6.788;2022-09-03T01:50:52;19.20;1.00
48604;DHT22;32708;51.212;6.788;2022-09-03T01:53:44;19.10;1.00
48604;DHT22;32708;51.212;6.788;2022-09-03T02:02:20;19.10;1.00
48604;DHT22;32708;51.212;6.788;2022-09-03T02:05:10;19.10;1.00
48604;DHT22;32708;51.212;6.788;2022-09-03T02:10:17;19.00;1.00
48604;DHT22;32708;51.212;6.788;2022-09-03T02:12:51;19.00;1.00
48604;DHT22;32708;51.212;6.788;2022-09-03T02:15:22;19.00;1.00
48604;DHT22;32708;51.212;6.788;2022-09-03T02:17:53;19.00;1.00
48604;DHT22;32708;51.212;6.788;2022-09-03T02:20:24;19.00;1.00
48604;DHT22;32708;51.212;6.788;2022-09-03T02:22:56;18.90;1.00
48604;DHT22;32708;51.212;6.788;2022-09-03T02:25:33;19.00;1.00
48604;DHT22;32708;51.212;6.788;2022-09-03T02:28:01;18.90;1.00
48604;DHT22;32708;51.212;6.788;2022-09-03T02:30:28;18.90;1.00
48604;DHT22;32708;51.212;6.788;2022-09-03T02:32:54;18.90;1.00
48604;DHT22;32708;51.212;6.788;2022-09-03T02:35:24;18.80;1.00
48604;DHT22;32708;51.212;6.788;2022-09-03T02:37:49;18.80;1.00
48604;DHT22;32708;51.212;6.788;2022-09-03T02:40:16;18.80;1.00
48604;DHT22;32708;51.212;6.788;2022-09-03T02:42:43;18.80;1.00
48604;DHT22;32708;51.212;6.788;2022-09-03T02:45:20;18.80;1.00
48604;DHT22;32708;51.212;6.788;2022-09-03T02:47:57;18.80;1.00
48604;DHT22;32708;51.212;6.788;2022-09-03T02:50:24;18.70;1.00
48604;DHT22;32708;51.212;6.788;2022-09-03T02:52:51;18.70;1.00
48604;DHT22;32708;51.212;6.788;2022-09-03T02:55:18;18.70;1.00
48604;DHT22;32708;51.212;6.788;2022-09-03T02:57:45;18.70;1.00
48604;DHT22;32708;51.212;6.788;2022-09-03T03:00:13;18.70;1.00
48604;DHT22;32708;51.212;6.788;2022-09-03T03:02:39;18.60;1.00
48604;DHT22;32708;51.212;6.788;2022-09-03T03:05:06;18.70;1.00
48604;DHT22;32708;51.212;6.788;2022-09-03T03:07:38;18.60;1.00
48604;DHT22;32708;51.212;6.788;2022-09-03T03:10:05;18.60;1.00
48604;DHT22;32708;51.212;6.788;2022-09-03T03:12:31;18.60;1.00
48604;DHT22;32708;51.212;6.788;2022-09-03T03:14:58;18.60;1.00
48604;DHT22;32708;51.212;6.788;2022-09-03T03:17:24;18.60;1.00
48604;DHT22;32708;51.212;6.788;2022-09-03T03:19:50;18.50;1.00
48604;DHT22;32708;51.212;6.788;2022-09-03T03:22:17;18.50;1.00
48604;DHT22;32708;51.212;6.788;2022-09-03T03:24:48;18.40;1.00
48604;DHT22;32708;51.212;6.788;2022-09-03T03:27:20;18.40;1.00
48604;DHT22;32708;51.212;6.788;2022-09-03T03:29:46;18.40;1.00
48604;DHT22;32708;51.212;6.788;2022-09-03T03:32:12;18.30;1.00
48604;DHT22;32708;51.212;6.788;2022-09-03T03:34:38;18.40;1.00
48604;DHT22;32708;51.212;6.788;2022-09-03T03:37:04;18.40;1.00
48604;DHT22;32708;51.212;6.788;2022-09-03T03:39:30;18.30;1.00
48604;DHT22;32708;51.212;6.788;2022-09-03T03:41:57;18.30;1.00
48604;DHT22;32708;51.212;6.788;2022-09-03T03:44:24;18.30;1.00
48604;DHT22;32708;51.212;6.788;2022-09-03T03:46:51;18.20;1.00
48604;DHT22;32708;51.212;6.788;2022-09-03T03:49:18;18.20;1.00
48604;DHT22;32708;51.212;6.788;2022-09-03T03:51:44;18.20;1.00
48604;DHT22;32708;51.212;6.788;2022-09-03T03:54:10;18.20;1.00
48604;DHT22;32708;51.212;6.788;2022-09-03T03:56:36;18.20;1.00
48604;DHT22;32708;51.212;6.788;2022-09-03T03:59:03;18.20;1.00
48604;DHT22;32708;51.212;6.788;2022-09-03T04:01:32;18.20;1.00
48604;DHT22;32708;51.212;6.788;2022-09-03T04:03:58;18.10;1.00
48604;DHT22;32708;51.212;6.788;2022-09-03T04:06:25;18.10;1.00
48604;DHT22;32708;51.212;6.788;2022-09-03T04:08:51;18.20;1.00
48604;DHT22;32708;51.212;6.788;2022-09-03T04:11:20;18.10;1.00
48604;DHT22;32708;51.212;6.788;2022-09-03T04:13:50;18.10;1.00
48604;DHT22;32708;51.212;6.788;2022-09-03T04:16:22;18.10;1.00
48604;DHT22;32708;51.212;6.788;2022-09-03T04:18:51;18.10;1.00
48604;DHT22;32708;51.212;6.788;2022-09-03T04:21:19;18.00;1.00
48604;DHT22;32708;51.212;6.788;2022-09-03T04:23:47;18.00;1.00
48604;DHT22;32708;51.212;6.788;2022-09-03T04:26:16;18.00;1.00
48604;DHT22;32708;51.212;6.788;2022-09-03T04:28:43;18.00;1.00
48604;DHT22;32708;51.212;6.788;2022-09-03T04:31:20;18.00;1.00
48604;DHT22;32708;51.212;6.788;2022-09-03T04:33:46;18.00;1.00
48604;DHT22;32708;51.212;6.788;2022-09-03T04:38:51;18.00;1.00
48604;DHT22;32708;51.212;6.788;2022-09-03T04:41:22;17.90;1.00
48604;DHT22;32708;51.212;6.788;2022-09-03T04:43:51;17.90;1.00
48604;DHT22;32708;51.212;6.788;2022-09-03T04:46:18;18.00;1.00
48604;DHT22;32708;51.212;6.788;2022-09-03T04:48:50;18.00;1.00
48604;DHT22;32708;51.212;6.788;2022-09-03T04:51:24;18.00;1.00
48604;DHT22;32708;51.212;6.788;2022-09-03T04:53:57;17.90;1.00
48604;DHT22;32708;51.212;6.788;2022-09-03T04:56:27;17.90;1.00
48604;DHT22;32708;51.212;6.788;2022-09-03T04:58:58;17.90;1.00
48604;DHT22;32708;51.212;6.788;2022-09-03T05:01:27;17.90;1.00
48604;DHT22;32708;51.212;6.788;2022-09-03T05:03:57;17.90;1.00
48604;DHT22;32708;51.212;6.788;2022-09-03T05:06:24;17.90;1.00
48604;DHT22;32708;51.212;6.788;2022-09-03T05:08:52;17.90;1.00
48604;DHT22;32708;51.212;6.788;2022-09-03T05:11:20;18.00;1.00
48604;DHT22;32708;51.212;6.788;2022-09-03T05:13:50;17.90;1.00
48604;DHT22;32708;51.212;6.788;2022-09-03T05:16:18;18.00;1.00
48604;DHT22;32708;51.212;6.788;2022-09-03T05:18:47;18.00;1.00
48604;DHT22;32708;51.212;6.788;2022-09-03T05:21:15;18.00;1.00
48604;DHT22;32708;51.212;6.788;2022-09-03T05:23:44;18.10;1.00
48604;DHT22;32708;51.212;6.788;2022-09-03T05:26:16;18.10;1.00
48604;DHT22;32708;51.212;6.788;2022-09-03T05:28:44;18.20;1.00
48604;DHT22;32708;51.212;6.788;2022-09-03T05:31:14;18.30;1.00
48604;DHT22;32708;51.212;6.788;2022-09-03T05:33:44;18.40;1.00
48604;DHT22;32708;51.212;6.788;2022-09-03T05:36:20;18.40;1.00
48604;DHT22;32708;51.212;6.788;2022-09-03T05:38:51;18.50;1.00
48604;DHT22;32708;51.212;6.788;2022-09-03T05:41:22;18.50;1.00
48604;DHT22;32708;51.212;6.788;2022-09-03T05:43:50;18.50;1.00
48604;DHT22;32708;51.212;6.788;2022-09-03T05:46:27;18.50;1.00
48604;DHT22;32708;51.212;6.788;2022-09-03T05:49:01;18.40;1.00
48604;DHT22;32708;51.212;6.788;2022-09-03T05:51:28;18.40;1.00
48604;DHT22;32708;51.212;6.788;2022-09-03T05:53:55;18.50;1.00
48604;DHT22;32708;51.212;6.788;2022-09-03T05:56:24;18.50;1.00
48604;DHT22;32708;51.212;6.788;2022-09-03T06:19:12;20.20;1.00
48604;DHT22;32708;51.212;6.788;2022-09-03T06:21:43;21.00;1.00
48604;DHT22;32708;51.212;6.788;2022-09-03T06:24:12;21.20;1.00
48604;DHT22;32708;51.212;6.788;2022-09-03T06:26:40;21.00;1.00
48604;DHT22;32708;51.212;6.788;2022-09-03T06:29:07;21.30;1.00
48604;DHT22;32708;51.212;6.788;2022-09-03T06:31:33;21.60;1.00
48604;DHT22;32708;51.212;6.788;2022-09-03T06:34:00;22.00;1.00
48604;DHT22;32708;51.212;6.788;2022-09-03T06:36:27;22.10;1.00
48604;DHT22;32708;51.212;6.788;2022-09-03T06:38:55;22.30;1.00
48604;DHT22;32708;51.212;6.788;2022-09-03T06:41:24;22.60;1.00
48604;DHT22;32708;51.212;6.788;2022-09-03T06:43:57;22.30;1.00
48604;DHT22;32708;51.212;6.788;2022-09-03T06:46:32;22.50;1.00
48604;DHT22;32708;51.212;6.788;2022-09-03T06:49:00;22.70;1.00
48604;DHT22;32708;51.212;6.788;2022-09-03T06:51:28;22.80;1.00
48604;DHT22;32708;51.212;6.788;2022-09-03T06:54:04;22.60;1.00
48604;DHT22;32708;51.212;6.788;2022-09-03T06:56:39;22.90;1.00
48604;DHT22;32708;51.212;6.788;2022-09-03T06:59:11;22.80;1.00
48604;DHT22;32708;51.212;6.788;2022-09-03T07:01:39;22.70;1.00
48604;DHT22;32708;51.212;6.788;2022-09-03T07:04:07;22.90;1.00
48604;DHT22;32708;51.212;6.788;2022-09-03T07:06:38;23.00;1.00
48604;DHT22;32708;51.212;6.788;2022-09-03T07:09:07;22.90;1.00
48604;DHT22;32708;51.212;6.788;2022-09-03T07:11:35;23.20;1.00
48604;DHT22;32708;51.212;6.788;2022-09-03T07:14:16;23.10;1.00
48604;DHT22;32708;51.212;6.788;2022-09-03T07:16:43;22.60;1.00
48604;DHT22;32708;51.212;6.788;2022-09-03T07:19:11;22.50;1.00
48604;DHT22;32708;51.212;6.788;2022-09-03T07:21:39;22.50;1.00
48604;DHT22;32708;51.212;6.788;2022-09-03T07:24:09;22.70;1.00
48604;DHT22;32708;51.212;6.788;2022-09-03T07:26:38;23.40;1.00
48604;DHT22;32708;51.212;6.788;2022-09-03T07:29:06;23.30;1.00
48604;DHT22;32708;51.212;6.788;2022-09-03T07:31:38;22.70;1.00
48604;DHT22;32708;51.212;6.788;2022-09-03T07:34:07;22.20;1.00
48604;DHT22;32708;51.212;6.788;2022-09-03T07:36:46;22.20;1.00
48604;DHT22;32708;51.212;6.788;2022-09-03T07:39:16;21.90;1.00
48604;DHT22;32708;51.212;6.788;2022-09-03T07:41:44;21.60;1.00
48604;DHT22;32708;51.212;6.788;2022-09-03T07:44:15;22.00;1.00
48604;DHT22;32708;51.212;6.788;2022-09-03T07:46:44;21.90;1.00
48604;DHT22;32708;51.212;6.788;2022-09-03T07:49:12;22.20;1.00
48604;DHT22;32708;51.212;6.788;2022-09-03T07:51:39;22.40;1.00
48604;DHT22;32708;51.212;6.788;2022-09-03T07:54:09;22.40;1.00
48604;DHT22;32708;51.212;6.788;2022-09-03T07:56:37;22.40;1.00
48604;DHT22;32708;51.212;6.788;2022-09-03T07:59:04;22.20;1.00
48604;DHT22;32708;51.212;6.788;2022-09-03T08:01:32;22.00;1.00
48604;DHT22;32708;51.212;6.788;2022-09-03T08:04:01;22.60;1.00
48604;DHT22;32708;51.212;6.788;2022-09-03T08:06:30;22.90;1.00
48604;DHT22;32708;51.212;6.788;2022-09-03T08:09:03;22.80;1.00
48604;DHT22;32708;51.212;6.788;2022-09-03T08:11:30;22.60;1.00
48604;DHT22;32708;51.212;6.788;2022-09-03T08:14:03;22.60;1.00
48604;DHT22;32708;51.212;6.788;2022-09-03T08:16:34;22.40;1.00
48604;DHT22;32708;51.212;6.788;2022-09-03T08:19:02;22.30;1.00
48604;DHT22;32708;51.212;6.788;2022-09-03T08:21:30;22.00;1.00
48604;DHT22;32708;51.212;6.788;2022-09-03T08:23:58;22.30;1.00
48604;DHT22;32708;51.212;6.788;2022-09-03T08:26:36;23.10;1.00
48604;DHT22;32708;51.212;6.788;2022-09-03T08:29:04;24.10;1.00
48604;DHT22;32708;51.212;6.788;2022-09-03T08:31:32;24.50;1.00
48604;DHT22;32708;51.212;6.788;2022-09-03T08:34:00;24.10;1.00
48604;DHT22;32708;51.212;6.788;2022-09-03T08:36:33;23.90;1.00
48604;DHT22;32708;51.212;6.788;2022-09-03T08:39:02;23.80;1.00
48604;DHT22;32708;51.212;6.788;2022-09-03T08:44:29;23.00;1.00
48604;DHT22;32708;51.212;6.788;2022-09-03T08:47:15;23.00;1.00
48604;DHT22;32708;51.212;6.788;2022-09-03T08:52:46;23.70;1.00
48604;DHT22;32708;51.212;6.788;2022-09-03T08:55:28;23.10;1.00
48604;DHT22;32708;51.212;6.788;2022-09-03T09:03:40;22.30;1.00
48604;DHT22;32708;51.212;6.788;2022-09-03T09:06:17;22.50;1.00
48604;DHT22;32708;51.212;6.788;2022-09-03T09:17:15;23.70;1.00
48604;DHT22;32708;51.212;6.788;2022-09-03T09:20:03;24.40;1.00
48604;DHT22;32708;51.212;6.788;2022-09-03T09:22:37;25.00;1.00
48604;DHT22;32708;51.212;6.788;2022-09-03T09:25:14;24.90;1.00
48604;DHT22;32708;51.212;6.788;2022-09-03T09:27:50;25.20;1.00
48604;DHT22;32708;51.212;6.788;2022-09-03T09:30:17;25.50;1.00
48604;DHT22;32708;51.212;6.788;2022-09-03T09:32:44;25.20;1.00
48604;DHT22;32708;51.212;6.788;2022-09-03T09:35:13;24.80;1.00
48604;DHT22;32708;51.212;6.788;2022-09-03T09:38:08;24.80;1.00
48604;DHT22;32708;51.212;6.788;2022-09-03T09:40:40;25.30;1.00
48604;DHT22;32708;51.212;6.788;2022-09-03T09:43:18;24.80;1.00
48604;DHT22;32708;51.212;6.788;2022-09-03T09:45:49;24.50;1.00
48604;DHT22;32708;51.212;6.788;2022-09-03T09:48:25;24.10;1.00
48604;DHT22;32708;51.212;6.788;2022-09-03T09:53:34;25.00;1.00
48604;DHT22;32708;51.212;6.788;2022-09-03T09:56:02;25.30;1.00
48604;DHT22;32708;51.212;6.788;2022-09-03T09:58:31;25.00;1.00
48604;DHT22;32708;51.212;6.788;2022-09-03T10:01:20;25.10;1.00
48604;DHT22;32708;51.212;6.788;2022-09-03T10:03:52;24.20;1.00
48604;DHT22;32708;51.212;6.788;2022-09-03T10:06:25;24.00;1.00
48604;DHT22;32708;51.212;6.788;2022-09-03T10:09:17;23.90;1.00
48604;DHT22;32708;51.212;6.788;2022-09-03T10:14:38;24.40;1.00
48604;DHT22;32708;51.212;6.788;2022-09-03T10:17:29;24.60;1.00
48604;DHT22;32708;51.212;6.788;2022-09-03T10:20:17;24.20;1.00
48604;DHT22;32708;51.212;6.788;2022-09-03T10:23:24;23.70;1.00
48604;DHT22;32708;51.212;6.788;2022-09-03T10:28:38;23.20;1.00
48604;DHT22;32708;51.212;6.788;2022-09-03T10:37:17;23.30;1.00
48604;DHT22;32708;51.212;6.788;2022-09-03T10:39:51;23.40;1.00
48604;DHT22;32708;51.212;6.788;2022-09-03T10:50:21;23.30;1.00
48604;DHT22;32708;51.212;6.788;2022-09-03T11:01:04;23.50;1.00
48604;DHT22;32708;51.212;6.788;2022-09-03T11:06:29;23.30;1.00
48604;DHT22;32708;51.212;6.788;2022-09-03T11:09:07;23.20;1.00
48604;DHT22;32708;51.212;6.788;2022-09-03T11:11:48;23.30;1.00
48604;DHT22;32708;51.212;6.788;2022-09-03T11:14:29;23.80;1.00
48604;DHT22;32708;51.212;6.788;2022-09-03T11:17:27;24.30;1.00
48604;DHT22;32708;51.212;6.788;2022-09-03T11:20:20;24.60;1.00
48604;DHT22;32708;51.212;6.788;2022-09-03T11:22:50;25.00;1.00
48604;DHT22;32708;51.212;6.788;2022-09-03T11:25:21;24.80;1.00
48604;DHT22;32708;51.212;6.788;2022-09-03T11:31:21;24.90;1.00
48604;DHT22;32708;51.212;6.788;2022-09-03T11:33:58;24.90;1.00
48604;DHT22;32708;51.212;6.788;2022-09-03T11:36:33;24.70;1.00
48604;DHT22;32708;51.212;6.788;2022-09-03T11:39:00;24.40;1.00
48604;DHT22;32708;51.212;6.788;2022-09-03T11:41:37;24.10;1.00
48604;DHT22;32708;51.212;6.788;2022-09-03T11:44:40;24.10;1.00
48604;DHT22;32708;51.212;6.788;2022-09-03T11:47:38;23.90;1.00
48604;DHT22;32708;51.212;6.788;2022-09-03T11:50:26;23.80;1.00
48604;DHT22;32708;51.212;6.788;2022-09-03T11:53:07;23.90;1.00
48604;DHT22;32708;51.212;6.788;2022-09-03T11:55:51;24.30;1.00
48604;DHT22;32708;51.212;6.788;2022-09-03T11:58:37;24.60;1.00
48604;DHT22;32708;51.212;6.788;2022-09-03T12:01:10;24.90;1.00
48604;DHT22;32708;51.212;6.788;2022-09-03T12:03:43;24.70;1.00
48604;DHT22;32708;51.212;6.788;2022-09-03T12:15:10;25.10;1.00
48604;DHT22;32708;51.212;6.788;2022-09-03T12:18:07;24.50;1.00
48604;DHT22;32708;51.212;6.788;2022-09-03T12:25:53;25.20;1.00
48604;DHT22;32708;51.212;6.788;2022-09-03T12:28:23;25.60;1.00
48604;DHT22;32708;51.212;6.788;2022-09-03T12:30:51;26.30;1.00
48604;DHT22;32708;51.212;6.788;2022-09-03T12:33:21;27.00;1.00
48604;DHT22;32708;51.212;6.788;2022-09-03T12:35:59;27.00;1.00
48604;DHT22;32708;51.212;6.788;2022-09-03T12:38:29;26.80;1.00
48604;DHT22;32708;51.212;6.788;2022-09-03T12:40:57;25.70;1.00
48604;DHT22;32708;51.212;6.788;2022-09-03T12:43:28;25.60;1.00
48604;DHT22;32708;51.212;6.788;2022-09-03T12:45:55;25.70;1.00
48604;DHT22;32708;51.212;6.788;2022-09-03T12:48:21;25.40;1.00
48604;DHT22;32708;51.212;6.788;2022-09-03T12:51:00;25.60;1.00
48604;DHT22;32708;51.212;6.788;2022-09-03T12:53:30;26.20;1.00
48604;DHT22;32708;51.212;6.788;2022-09-03T12:56:02;26.20;1.00
48604;DHT22;32708;51.212;6.788;2022-09-03T13:01:21;26.20;1.00
48604;DHT22;32708;51.212;6.788;2022-09-03T13:04:09;26.10;1.00
48604;DHT22;32708;51.212;6.788;2022-09-03T13:09:09;26.00;1.00
48604;DHT22;32708;51.212;6.788;2022-09-03T13:11:36;26.00;1.00
48604;DHT22;32708;51.212;6.788;2022-09-03T13:14:09;26.00;1.00
48604;DHT22;32708;51.212;6.788;2022-09-03T13:30:08;26.20;1.00
48604;DHT22;32708;51.212;6.788;2022-09-03T13:35:51;26.20;1.00
48604;DHT22;32708;51.212;6.788;2022-09-03T13:38:36;26.10;1.00
48604;DHT22;32708;51.212;6.788;2022-09-03T13:44:13;26.10;1.00
48604;DHT22;32708;51.212;6.788;2022-09-03T13:52:52;26.50;1.00
48604;DHT22;32708;51.212;6.788;2022-09-03T13:58:23;26.40;1.00
48604;DHT22;32708;51.212;6.788;2022-09-03T14:01:16;26.50;1.00
48604;DHT22;32708;51.212;6.788;2022-09-03T14:03:51;26.80;1.00
48604;DHT22;32708;51.212;6.788;2022-09-03T14:06:24;26.80;1.00
48604;DHT22;32708;51.212;6.788;2022-09-03T14:15:05;26.40;1.00
48604;DHT22;32708;51.212;6.788;2022-09-03T14:17:58;26.40;1.00
48604;DHT22;32708;51.212;6.788;2022-09-03T14:20:33;26.40;1.00
48604;DHT22;32708;51.212;6.788;2022-09-03T14:26:17;26.40;1.00
48604;DHT22;32708;51.212;6.788;2022-09-03T14:29:13;26.60;1.00
48604;DHT22;32708;51.212;6.788;2022-09-03T14:34:47;26.70;1.00
48604;DHT22;32708;51.212;6.788;2022-09-03T14:40:28;26.50;1.00
48604;DHT22;32708;51.212;6.788;2022-09-03T14:45:49;26.40;1.00
48604;DHT22;32708;51.212;6.788;2022-09-03T14:59:19;26.40;1.00
48604;DHT22;32708;51.212;6.788;2022-09-03T15:13:17;26.60;1.00
48604;DHT22;32708;51.212;6.788;2022-09-03T15:18:57;26.70;1.00
48604;DHT22;32708;51.212;6.788;2022-09-03T15:24:21;27.00;1.00
48604;DHT22;32708;51.212;6.788;2022-09-03T15:26:55;26.90;1.00
48604;DHT22;32708;51.212;6.788;2022-09-03T15:29:54;26.80;1.00
48604;DHT22;32708;51.212;6.788;2022-09-03T15:33:01;26.60;1.00
48604;DHT22;32708;51.212;6.788;2022-09-03T15:41:00;26.70;1.00
48604;DHT22;32708;51.212;6.788;2022-09-03T15:43:31;26.70;1.00
48604;DHT22;32708;51.212;6.788;2022-09-03T15:46:57;26.90;1.00
48604;DHT22;32708;51.212;6.788;2022-09-03T15:49:35;27.00;1.00
48604;DHT22;32708;51.212;6.788;2022-09-03T15:58:05;26.70;1.00
48604;DHT22;32708;51.212;6.788;2022-09-03T16:00:54;26.50;1.00
48604;DHT22;32708;51.212;6.788;2022-09-03T16:06:44;26.40;1.00
48604;DHT22;32708;51.212;6.788;2022-09-03T16:15:29;26.50;1.00
48604;DHT22;32708;51.212;6.788;2022-09-03T16:18:22;26.50;1.00
48604;DHT22;32708;51.212;6.788;2022-09-03T16:21:11;26.40;1.00
48604;DHT22;32708;51.212;6.788;2022-09-03T16:23:45;26.40;1.00
48604;DHT22;32708;51.212;6.788;2022-09-03T16:29:08;26.20;1.00
48604;DHT22;32708;51.212;6.788;2022-09-03T16:35:02;26.20;1.00
48604;DHT22;32708;51.212;6.788;2022-09-03T16:37:57;26.10;1.00
48604;DHT22;32708;51.212;6.788;2022-09-03T16:54:05;25.80;1.00
48604;DHT22;32708;51.212;6.788;2022-09-03T17:16:38;25.70;1.00
48604;DHT22;32708;51.212;6.788;2022-09-03T17:21:37;25.80;1.00
48604;DHT22;32708;51.212;6.788;2022-09-03T17:24:42;25.70;1.00
48604;DHT22;32708;51.212;6.788;2022-09-03T17:30:33;25.70;1.00
48604;DHT22;32708;51.212;6.788;2022-09-03T17:36:14;25.30;1.00
48604;DHT22;32708;51.212;6.788;2022-09-03T17:47:20;25.20;1.00
48604;DHT22;32708;51.212;6.788;2022-09-03T17:49:54;25.00;1.00
48604;DHT22;32708;51.212;6.788;2022-09-03T17:52:31;24.90;1.00
48604;DHT22;32708;51.212;6.788;2022-09-03T17:55:42;24.80;1.00
48604;DHT22;32708;51.212;6.788;2022-09-03T17:58:35;24.60;1.00
48604;DHT22;32708;51.212;6.788;2022-09-03T18:01:14;24.60;1.00
48604;DHT22;32708;51.212;6.788;2022-09-03T18:11:50;23.90;40.60
48604;DHT22;32708;51.212;6.788;2022-09-03T18:14:29;23.80;82.40
48604;DHT22;32708;51.212;6.788;2022-09-03T18:17:00;23.70;96.80
48604;DHT22;32708;51.212;6.788;2022-09-03T18:19:51;23.60;99.90
48604;DHT22;32708;51.212;6.788;2022-09-03T18:22:59;23.70;99.90
48604;DHT22;32708;51.212;6.788;2022-09-03T18:26:10;23.50;99.90
48604;DHT22;32708;51.212;6.788;2022-09-03T18:29:02;23.30;99.90
48604;DHT22;32708;51.212;6.788;2022-09-03T18:31:48;23.20;99.90
48604;DHT22;32708;51.212;6.788;2022-09-03T18:34:35;23.20;99.90
48604;DHT22;32708;51.212;6.788;2022-09-03T18:37:24;23.10;99.90
48604;DHT22;32708;51.212;6.788;2022-09-03T18:40:17;23.00;99.90
48604;DHT22;32708;51.212;6.788;2022-09-03T18:53:04;22.40;1.00
48604;DHT22;32708;51.212;6.788;2022-09-03T18:55:59;22.10;3.40
48604;DHT22;32708;51.212;6.788;2022-09-03T18:58:51;21.80;1.00
48604;DHT22;32708;51.212;6.788;2022-09-03T19:01:39;21.70;99.90
48604;DHT22;32708;51.212;6.788;2022-09-03T19:08:27;21.40;99.90
48604;DHT22;32708;51.212;6.788;2022-09-03T19:11:08;21.30;1.00
48604;DHT22;32708;51.212;6.788;2022-09-03T19:13:59;21.30;1.00
48604;DHT22;32708;51.212;6.788;2022-09-03T19:17:20;21.30;1.00
48604;DHT22;32708;51.212;6.788;2022-09-03T19:23:03;21.20;1.00
48604;DHT22;32708;51.212;6.788;2022-09-03T19:25:48;21.20;1.00
48604;DHT22;32708;51.212;6.788;2022-09-03T19:28:40;21.10;1.00
48604;DHT22;32708;51.212;6.788;2022-09-03T19:32:03;21.10;1.00
48604;DHT22;32708;51.212;6.788;2022-09-03T19:41:06;21.10;1.00
48604;DHT22;32708;51.212;6.788;2022-09-03T19:47:21;21.00;1.00
48604;DHT22;32708;51.212;6.788;2022-09-03T19:50:21;20.90;1.00
48604;DHT22;32708;51.212;6.788;2022-09-03T19:53:14;20.90;1.00
48604;DHT22;32708;51.212;6.788;2022-09-03T19:56:10;21.00;1.00
48604;DHT22;32708;51.212;6.788;2022-09-03T19:59:01;20.90;1.00
48604;DHT22;32708;51.212;6.788;2022-09-03T20:01:47;20.90;1.00
48604;DHT22;32708;51.212;6.788;2022-09-03T20:05:00;20.90;1.00
48604;DHT22;32708;51.212;6.788;2022-09-03T20:07:54;20.90;1.00
48604;DHT22;32708;51.212;6.788;2022-09-03T20:10:42;20.80;1.00
48604;DHT22;32708;51.212;6.788;2022-09-03T20:13:14;20.80;1.00
48604;DHT22;32708;51.212;6.788;2022-09-03T20:16:12;20.70;1.00
48604;DHT22;32708;51.212;6.788;2022-09-03T20:19:01;20.70;1.00
48604;DHT22;32708;51.212;6.788;2022-09-03T20:21:56;20.70;1.00
48604;DHT22;32708;51.212;6.788;2022-09-03T20:27:04;20.60;1.00
48604;DHT22;32708;51.212;6.788;2022-09-03T20:29:55;20.50;1.00
48604;DHT22;32708;51.212;6.788;2022-09-03T20:41:11;20.30;22.90
48604;DHT22;32708;51.212;6.788;2022-09-03T20:46:53;20.20;32.20
48604;DHT22;32708;51.212;6.788;2022-09-03T20:52:28;20.10;39.10
48604;DHT22;32708;51.212;6.788;2022-09-03T20:55:04;20.10;40.00
48604;DHT22;32708;51.212;6.788;2022-09-03T20:57:57;20.10;39.20
48604;DHT22;32708;51.212;6.788;2022-09-03T21:00:46;20.10;39.70
48604;DHT22;32708;51.212;6.788;2022-09-03T21:03:21;20.10;40.80
48604;DHT22;32708;51.212;6.788;2022-09-03T21:11:39;19.80;48.30
48604;DHT22;32708;51.212;6.788;2022-09-03T21:14:18;19.90;46.60
48604;DHT22;32708;51.212;6.788;2022-09-03T21:19:48;19.90;43.60
48604;DHT22;32708;51.212;6.788;2022-09-03T21:25:14;19.80;43.40
48604;DHT22;32708;51.212;6.788;2022-09-03T21:27:48;19.80;42.10
48604;DHT22;32708;51.212;6.788;2022-09-03T21:30:18;19.90;39.70
48604;DHT22;32708;51.212;6.788;2022-09-03T21:36:13;19.90;36.80
48604;DHT22;32708;51.212;6.788;2022-09-03T21:38:44;19.90;32.60
48604;DHT22;32708;51.212;6.788;2022-09-03T21:41:25;19.80;32.00
48604;DHT22;32708;51.212;6.788;2022-09-03T21:46:42;19.80;26.70
48604;DHT22;32708;51.212;6.788;2022-09-03T21:49:14;19.80;25.10
48604;DHT22;32708;51.212;6.788;2022-09-03T21:52:02;19.80;22.90
48604;DHT22;32708;51.212;6.788;2022-09-03T21:54:31;19.90;16.90
48604;DHT22;32708;51.212;6.788;2022-09-03T22:02:26;19.90;9.20
48604;DHT22;32708;51.212;6.788;2022-09-03T22:04:55;19.90;8.30
48604;DHT22;32708;51.212;6.788;2022-09-03T22:13:34;19.80;10.20
48604;DHT22;32708;51.212;6.788;2022-09-03T22:18:56;19.80;10.10
48604;DHT22;32708;51.212;6.788;2022-09-03T22:21:47;19.80;12.90
48604;DHT22;32708;51.212;6.788;2022-09-03T22:27:29;19.70;20.50
48604;DHT22;32708;51.212;6.788;2022-09-03T22:30:24;19.70;15.20
48604;DHT22;32708;51.212;6.788;2022-09-03T22:33:16;19.60;16.10
48604;DHT22;32708;51.212;6.788;2022-09-03T22:41:44;19.70;18.70
48604;DHT22;32708;51.212;6.788;2022-09-03T22:53:20;19.60;26.50
48604;DHT22;32708;51.212;6.788;2022-09-03T22:56:16;19.50;29.60
48604;DHT22;32708;51.212;6.788;2022-09-03T22:59:03;19.50;34.40
48604;DHT22;32708;51.212;6.788;2022-09-03T23:01:42;19.40;38.30
48604;DHT22;32708;51.212;6.788;2022-09-03T23:06:50;19.40;40.40
48604;DHT22;32708;51.212;6.788;2022-09-03T23:09:24;19.40;43.90
48604;DHT22;32708;51.212;6.788;2022-09-03T23:12:26;19.30;48.20
48604;DHT22;32708;51.212;6.788;2022-09-03T23:15:03;19.30;49.90
48604;DHT22;32708;51.212;6.788;2022-09-03T23:17:50;19.30;51.20
48604;DHT22;32708;51.212;6.788;2022-09-03T23:20:24;19.30;53.30
48604;DHT22;32708;51.212;6.788;2022-09-03T23:23:01;19.30;55.20
48604;DHT22;32708;51.212;6.788;2022-09-03T23:25:37;19.20;56.30
48604;DHT22;32708;51.212;6.788;2022-09-03T23:28:31;19.20;58.50
48604;DHT22;32708;51.212;6.788;2022-09-03T23:31:18;18.80;58.90
48604;DHT22;32708;51.212;6.788;2022-09-03T23:33:46;19.10;63.70
48604;DHT22;32708;51.212;6.788;2022-09-03T23:39:42;19.20;62.10
48604;DHT22;32708;51.212;6.788;2022-09-03T23:45:19;19.00;63.60
48604;DHT22;32708;51.212;6.788;2022-09-03T23:53:59;19.10;66.60
